Nazimovo, Russia
Current Conditions -  °F | °C
As of 12:30 AM on Tuesday 25 Nov 2014 (Local Time) from UNKL Reporting Station
Broken Clouds Broken Clouds  
Wind Chill: -28°   Ceiling: 17000
Heat Index: -13°   Visibility: 6mi
Dew Point: -20°   Wind: 7mph
Humidity: 70%   Direction: 260°W
Pressure: 29.85"   Gusts: NA
Location:  59.5°N, 91.02°E
Report Text: UNKL 241730Z 26003MPS 9000 SCT050 BKN170 M25/M29 Q1011 NOSIGRMK QFE733 29////55
Loading
Personal Weather Stations






























Interactive Weather Map New forecast layout! Learn more

10-Day Weather Forecast

Advertisements
Track Severe Weather on mobile